Weather at Ulu Tomani Airport

Public forecast

Using degrees Celsius for public forecast. Weather courtesy of forecast.io.

Closest aviation weather report (METAR) to Ulu Tomani Airport

Closest report is Labuan Airport, 51.6 nm (95.5 km) NW.

2023/02/01 19:00 (retrieved 25 minutes ago)

WBKL 011900Z 00000KT 9999 FEW035 23/23 Q1007

Closest aviation forecast (TAF) to Ulu Tomani Airport

Closest forecast is Labuan Airport, 51.6 nm (95.5 km) NW.

2023/02/01 18:00 (retrieved 1 hour ago)

TAF WBKL 011700Z 0118/0218 VRB03KT 9999 FEW015 BECMG 0204/0206 08007KT TEMPO 0209/0212 5000 TSRA FEW010 FEW016CB SCT030